Terminal Aerodrome Forecast
Issued by NWS Brownsville, TX

Home | Current Version | Previous Version | Text Only | Print | Product List | Glossary On
Versions: 1 2 3 4 5 6 7 8 9 10 11 12 13 14 15
000
FTUS44 KBRO 251128
TAFHRL
TAF
KHRL 251128Z 2512/2612 14008KT 4SM BR OVC014
     FM251400 17012KT P6SM BKN020
     FM251800 10010KT P6SM BKN040
     FM260300 07003KT 5SM BR BKN015=

USA.gov is the U.S. government's official web portal to all federal, state and local government web resources and services.